sensor_id;sensor_type;location;lat;lon;timestamp;P1;durP1;ratioP1;P2;durP2;ratioP2
24216;SDS011;12356;49.386;8.688;2023-09-19T00:01:06;2.55;;;0.90;;
24216;SDS011;12356;49.386;8.688;2023-09-19T00:03:41;1.83;;;0.90;;
24216;SDS011;12356;49.386;8.688;2023-09-19T00:06:12;2.58;;;1.00;;
24216;SDS011;12356;49.386;8.688;2023-09-19T00:08:45;3.85;;;1.17;;
24216;SDS011;12356;49.386;8.688;2023-09-19T00:11:18;3.65;;;1.02;;
24216;SDS011;12356;49.386;8.688;2023-09-19T00:13:48;1.88;;;1.05;;
24216;SDS011;12356;49.386;8.688;2023-09-19T00:16:20;3.57;;;0.87;;
24216;SDS011;12356;49.386;8.688;2023-09-19T00:18:50;3.45;;;1.00;;
24216;SDS011;12356;49.386;8.688;2023-09-19T00:21:22;5.40;;;1.10;;
24216;SDS011;12356;49.386;8.688;2023-09-19T00:23:53;1.58;;;0.90;;
24216;SDS011;12356;49.386;8.688;2023-09-19T00:26:23;1.92;;;0.82;;
24216;SDS011;12356;49.386;8.688;2023-09-19T00:28:54;1.38;;;1.00;;
24216;SDS011;12356;49.386;8.688;2023-09-19T00:31:27;2.17;;;0.90;;
24216;SDS011;12356;49.386;8.688;2023-09-19T00:33:59;3.53;;;1.20;;
24216;SDS011;12356;49.386;8.688;2023-09-19T00:36:34;2.08;;;0.90;;
24216;SDS011;12356;49.386;8.688;2023-09-19T00:39:04;2.85;;;1.08;;
24216;SDS011;12356;49.386;8.688;2023-09-19T00:41:35;1.48;;;0.98;;
24216;SDS011;12356;49.386;8.688;2023-09-19T00:44:06;3.58;;;1.00;;
24216;SDS011;12356;49.386;8.688;2023-09-19T00:46:37;3.30;;;1.10;;
24216;SDS011;12356;49.386;8.688;2023-09-19T00:49:08;3.20;;;1.10;;
24216;SDS011;12356;49.386;8.688;2023-09-19T00:51:39;2.07;;;0.90;;
24216;SDS011;12356;49.386;8.688;2023-09-19T00:54:15;2.85;;;1.20;;
24216;SDS011;12356;49.386;8.688;2023-09-19T00:56:48;3.80;;;1.20;;
24216;SDS011;12356;49.386;8.688;2023-09-19T01:01:52;1.33;;;0.77;;
24216;SDS011;12356;49.386;8.688;2023-09-19T01:04:24;3.83;;;1.20;;
24216;SDS011;12356;49.386;8.688;2023-09-19T01:06:55;2.63;;;0.95;;
24216;SDS011;12356;49.386;8.688;2023-09-19T01:09:26;1.92;;;1.13;;
24216;SDS011;12356;49.386;8.688;2023-09-19T01:11:58;2.00;;;1.10;;
24216;SDS011;12356;49.386;8.688;2023-09-19T01:14:42;3.08;;;1.10;;
24216;SDS011;12356;49.386;8.688;2023-09-19T01:20:07;4.05;;;1.17;;
24216;SDS011;12356;49.386;8.688;2023-09-19T01:22:55;3.28;;;1.15;;
24216;SDS011;12356;49.386;8.688;2023-09-19T01:28:39;4.28;;;1.42;;
24216;SDS011;12356;49.386;8.688;2023-09-19T01:31:43;2.20;;;0.98;;
24216;SDS011;12356;49.386;8.688;2023-09-19T01:34:15;2.30;;;1.05;;
24216;SDS011;12356;49.386;8.688;2023-09-19T01:36:46;3.72;;;1.20;;
24216;SDS011;12356;49.386;8.688;2023-09-19T01:39:16;2.78;;;1.25;;
24216;SDS011;12356;49.386;8.688;2023-09-19T01:47:35;2.97;;;1.00;;
24216;SDS011;12356;49.386;8.688;2023-09-19T01:50:17;3.13;;;1.08;;
24216;SDS011;12356;49.386;8.688;2023-09-19T01:53:14;2.53;;;1.10;;
24216;SDS011;12356;49.386;8.688;2023-09-19T01:55:51;2.75;;;1.15;;
24216;SDS011;12356;49.386;8.688;2023-09-19T01:58:37;4.43;;;1.23;;
24216;SDS011;12356;49.386;8.688;2023-09-19T02:01:16;4.55;;;1.10;;
24216;SDS011;12356;49.386;8.688;2023-09-19T02:03:50;3.38;;;1.05;;
24216;SDS011;12356;49.386;8.688;2023-09-19T02:06:20;2.70;;;1.08;;
24216;SDS011;12356;49.386;8.688;2023-09-19T02:08:51;2.15;;;1.02;;
24216;SDS011;12356;49.386;8.688;2023-09-19T02:11:22;3.60;;;1.30;;
24216;SDS011;12356;49.386;8.688;2023-09-19T02:13:52;2.50;;;1.00;;
24216;SDS011;12356;49.386;8.688;2023-09-19T02:16:24;1.17;;;1.08;;
24216;SDS011;12356;49.386;8.688;2023-09-19T02:18:54;2.90;;;1.10;;
24216;SDS011;12356;49.386;8.688;2023-09-19T02:21:25;3.17;;;1.02;;
24216;SDS011;12356;49.386;8.688;2023-09-19T02:23:59;2.28;;;1.20;;
24216;SDS011;12356;49.386;8.688;2023-09-19T02:26:29;3.35;;;1.10;;
24216;SDS011;12356;49.386;8.688;2023-09-19T02:29:00;3.78;;;1.10;;
24216;SDS011;12356;49.386;8.688;2023-09-19T02:31:31;4.55;;;1.10;;
24216;SDS011;12356;49.386;8.688;2023-09-19T02:34:02;2.92;;;1.10;;
24216;SDS011;12356;49.386;8.688;2023-09-19T02:36:33;3.13;;;1.08;;
24216;SDS011;12356;49.386;8.688;2023-09-19T02:39:03;2.00;;;1.30;;
24216;SDS011;12356;49.386;8.688;2023-09-19T02:44:07;1.52;;;1.00;;
24216;SDS011;12356;49.386;8.688;2023-09-19T02:46:38;2.42;;;1.08;;
24216;SDS011;12356;49.386;8.688;2023-09-19T02:49:08;2.80;;;1.10;;
24216;SDS011;12356;49.386;8.688;2023-09-19T02:51:39;3.05;;;1.45;;
24216;SDS011;12356;49.386;8.688;2023-09-19T02:54:09;4.78;;;1.10;;
24216;SDS011;12356;49.386;8.688;2023-09-19T02:56:41;3.63;;;1.30;;
24216;SDS011;12356;49.386;8.688;2023-09-19T02:59:12;8.80;;;1.30;;
24216;SDS011;12356;49.386;8.688;2023-09-19T03:01:43;2.00;;;1.15;;
24216;SDS011;12356;49.386;8.688;2023-09-19T03:04:14;4.15;;;1.20;;
24216;SDS011;12356;49.386;8.688;2023-09-19T03:06:49;3.63;;;1.20;;
24216;SDS011;12356;49.386;8.688;2023-09-19T03:09:21;2.60;;;1.17;;
24216;SDS011;12356;49.386;8.688;2023-09-19T03:11:53;3.03;;;1.17;;
24216;SDS011;12356;49.386;8.688;2023-09-19T03:14:24;2.80;;;1.25;;
24216;SDS011;12356;49.386;8.688;2023-09-19T03:16:55;2.33;;;1.00;;
24216;SDS011;12356;49.386;8.688;2023-09-19T03:19:26;3.65;;;1.40;;
24216;SDS011;12356;49.386;8.688;2023-09-19T03:21:56;4.68;;;1.27;;
24216;SDS011;12356;49.386;8.688;2023-09-19T03:24:27;6.22;;;1.50;;
24216;SDS011;12356;49.386;8.688;2023-09-19T03:26:59;2.90;;;1.17;;
24216;SDS011;12356;49.386;8.688;2023-09-19T03:29:29;4.78;;;1.30;;
24216;SDS011;12356;49.386;8.688;2023-09-19T03:32:00;4.22;;;1.30;;
24216;SDS011;12356;49.386;8.688;2023-09-19T03:34:31;2.72;;;1.20;;
24216;SDS011;12356;49.386;8.688;2023-09-19T03:37:02;2.60;;;1.25;;
24216;SDS011;12356;49.386;8.688;2023-09-19T03:39:33;5.85;;;1.60;;
24216;SDS011;12356;49.386;8.688;2023-09-19T03:42:04;4.13;;;1.40;;
24216;SDS011;12356;49.386;8.688;2023-09-19T03:44:35;5.30;;;1.30;;
24216;SDS011;12356;49.386;8.688;2023-09-19T03:47:05;2.75;;;1.30;;
24216;SDS011;12356;49.386;8.688;2023-09-19T03:49:37;3.33;;;1.30;;
24216;SDS011;12356;49.386;8.688;2023-09-19T03:52:07;4.20;;;1.40;;
24216;SDS011;12356;49.386;8.688;2023-09-19T03:54:38;3.08;;;1.50;;
24216;SDS011;12356;49.386;8.688;2023-09-19T03:57:11;2.70;;;1.35;;
24216;SDS011;12356;49.386;8.688;2023-09-19T03:59:46;3.72;;;1.50;;
24216;SDS011;12356;49.386;8.688;2023-09-19T04:02:17;3.08;;;1.50;;
24216;SDS011;12356;49.386;8.688;2023-09-19T04:04:52;3.53;;;1.60;;
24216;SDS011;12356;49.386;8.688;2023-09-19T04:07:23;3.85;;;1.50;;
24216;SDS011;12356;49.386;8.688;2023-09-19T04:09:53;3.00;;;1.50;;
24216;SDS011;12356;49.386;8.688;2023-09-19T04:12:24;2.55;;;1.40;;
24216;SDS011;12356;49.386;8.688;2023-09-19T04:14:54;2.88;;;1.52;;
24216;SDS011;12356;49.386;8.688;2023-09-19T04:17:25;2.10;;;1.40;;
24216;SDS011;12356;49.386;8.688;2023-09-19T04:19:55;5.05;;;1.70;;
24216;SDS011;12356;49.386;8.688;2023-09-19T04:22:26;2.97;;;1.48;;
24216;SDS011;12356;49.386;8.688;2023-09-19T04:24:56;2.85;;;1.48;;
24216;SDS011;12356;49.386;8.688;2023-09-19T04:27:27;4.63;;;1.58;;
24216;SDS011;12356;49.386;8.688;2023-09-19T04:29:57;3.40;;;1.50;;
24216;SDS011;12356;49.386;8.688;2023-09-19T04:32:29;10.45;;;1.50;;
24216;SDS011;12356;49.386;8.688;2023-09-19T04:34:59;4.13;;;1.60;;
24216;SDS011;12356;49.386;8.688;2023-09-19T04:37:30;2.42;;;1.50;;
24216;SDS011;12356;49.386;8.688;2023-09-19T04:40:01;4.10;;;1.65;;
24216;SDS011;12356;49.386;8.688;2023-09-19T04:42:34;4.75;;;1.70;;
24216;SDS011;12356;49.386;8.688;2023-09-19T04:45:05;4.72;;;1.80;;
24216;SDS011;12356;49.386;8.688;2023-09-19T04:47:36;4.78;;;1.80;;
24216;SDS011;12356;49.386;8.688;2023-09-19T04:52:43;3.67;;;1.70;;
24216;SDS011;12356;49.386;8.688;2023-09-19T04:55:15;4.38;;;1.73;;
24216;SDS011;12356;49.386;8.688;2023-09-19T04:57:47;6.25;;;1.88;;
24216;SDS011;12356;49.386;8.688;2023-09-19T05:00:19;3.10;;;1.88;;
24216;SDS011;12356;49.386;8.688;2023-09-19T05:02:54;2.95;;;1.73;;
24216;SDS011;12356;49.386;8.688;2023-09-19T05:05:26;3.95;;;1.60;;
24216;SDS011;12356;49.386;8.688;2023-09-19T05:07:58;3.37;;;1.83;;
24216;SDS011;12356;49.386;8.688;2023-09-19T05:10:29;4.07;;;2.13;;
24216;SDS011;12356;49.386;8.688;2023-09-19T05:12:59;6.05;;;2.38;;
24216;SDS011;12356;49.386;8.688;2023-09-19T05:15:31;4.50;;;2.13;;
24216;SDS011;12356;49.386;8.688;2023-09-19T05:18:01;4.65;;;2.40;;
24216;SDS011;12356;49.386;8.688;2023-09-19T05:20:33;5.38;;;2.17;;
24216;SDS011;12356;49.386;8.688;2023-09-19T05:23:06;5.65;;;2.08;;
24216;SDS011;12356;49.386;8.688;2023-09-19T05:25:41;5.50;;;2.08;;
24216;SDS011;12356;49.386;8.688;2023-09-19T05:28:13;3.85;;;2.35;;
24216;SDS011;12356;49.386;8.688;2023-09-19T05:30:45;5.47;;;2.15;;
24216;SDS011;12356;49.386;8.688;2023-09-19T05:33:17;6.03;;;2.47;;
24216;SDS011;12356;49.386;8.688;2023-09-19T05:35:48;3.75;;;2.63;;
24216;SDS011;12356;49.386;8.688;2023-09-19T05:38:19;7.60;;;2.60;;
24216;SDS011;12356;49.386;8.688;2023-09-19T05:40:50;4.55;;;2.33;;
24216;SDS011;12356;49.386;8.688;2023-09-19T05:43:20;3.25;;;2.20;;
24216;SDS011;12356;49.386;8.688;2023-09-19T05:45:51;6.72;;;2.30;;
24216;SDS011;12356;49.386;8.688;2023-09-19T05:48:22;4.70;;;2.33;;
24216;SDS011;12356;49.386;8.688;2023-09-19T05:50:52;4.88;;;2.70;;
24216;SDS011;12356;49.386;8.688;2023-09-19T05:53:23;5.13;;;2.50;;
24216;SDS011;12356;49.386;8.688;2023-09-19T05:55:53;7.05;;;2.63;;
24216;SDS011;12356;49.386;8.688;2023-09-19T05:58:25;5.75;;;2.20;;
24216;SDS011;12356;49.386;8.688;2023-09-19T06:00:56;4.70;;;2.33;;
24216;SDS011;12356;49.386;8.688;2023-09-19T06:03:27;3.95;;;2.03;;
24216;SDS011;12356;49.386;8.688;2023-09-19T06:05:59;5.40;;;2.30;;
24216;SDS011;12356;49.386;8.688;2023-09-19T06:08:29;3.50;;;1.95;;
24216;SDS011;12356;49.386;8.688;2023-09-19T06:11:01;6.20;;;2.67;;
24216;SDS011;12356;49.386;8.688;2023-09-19T06:13:32;6.40;;;2.22;;
24216;SDS011;12356;49.386;8.688;2023-09-19T06:16:03;7.10;;;2.40;;
24216;SDS011;12356;49.386;8.688;2023-09-19T06:18:35;5.60;;;2.30;;
24216;SDS011;12356;49.386;8.688;2023-09-19T06:21:06;4.70;;;2.30;;
24216;SDS011;12356;49.386;8.688;2023-09-19T06:23:37;5.20;;;2.03;;
24216;SDS011;12356;49.386;8.688;2023-09-19T06:26:08;5.82;;;2.42;;
24216;SDS011;12356;49.386;8.688;2023-09-19T06:28:39;6.15;;;2.35;;
24216;SDS011;12356;49.386;8.688;2023-09-19T06:31:11;6.45;;;2.70;;
24216;SDS011;12356;49.386;8.688;2023-09-19T06:33:42;5.82;;;2.58;;
24216;SDS011;12356;49.386;8.688;2023-09-19T06:36:13;8.95;;;2.60;;
24216;SDS011;12356;49.386;8.688;2023-09-19T06:38:43;5.95;;;2.20;;
24216;SDS011;12356;49.386;8.688;2023-09-19T06:41:14;6.32;;;2.63;;
24216;SDS011;12356;49.386;8.688;2023-09-19T06:43:47;4.85;;;2.20;;
24216;SDS011;12356;49.386;8.688;2023-09-19T06:46:17;7.75;;;2.20;;
24216;SDS011;12356;49.386;8.688;2023-09-19T06:48:48;7.68;;;2.00;;
24216;SDS011;12356;49.386;8.688;2023-09-19T06:51:19;4.80;;;2.10;;
24216;SDS011;12356;49.386;8.688;2023-09-19T06:53:50;5.22;;;1.85;;
24216;SDS011;12356;49.386;8.688;2023-09-19T06:56:24;2.90;;;1.90;;
24216;SDS011;12356;49.386;8.688;2023-09-19T06:58:55;5.72;;;2.10;;
24216;SDS011;12356;49.386;8.688;2023-09-19T07:01:26;4.00;;;1.88;;
24216;SDS011;12356;49.386;8.688;2023-09-19T07:03:57;6.07;;;2.17;;
24216;SDS011;12356;49.386;8.688;2023-09-19T07:06:27;7.72;;;2.47;;
24216;SDS011;12356;49.386;8.688;2023-09-19T07:08:58;5.03;;;2.42;;
24216;SDS011;12356;49.386;8.688;2023-09-19T07:11:28;3.63;;;2.00;;
24216;SDS011;12356;49.386;8.688;2023-09-19T07:14:00;5.40;;;2.03;;
24216;SDS011;12356;49.386;8.688;2023-09-19T07:16:33;6.07;;;2.20;;
24216;SDS011;12356;49.386;8.688;2023-09-19T07:19:03;7.38;;;1.90;;
24216;SDS011;12356;49.386;8.688;2023-09-19T07:21:34;2.97;;;1.80;;
24216;SDS011;12356;49.386;8.688;2023-09-19T07:24:08;5.05;;;1.70;;
24216;SDS011;12356;49.386;8.688;2023-09-19T07:26:39;5.28;;;1.75;;
24216;SDS011;12356;49.386;8.688;2023-09-19T07:29:10;4.13;;;1.50;;
24216;SDS011;12356;49.386;8.688;2023-09-19T07:31:40;7.72;;;1.95;;
24216;SDS011;12356;49.386;8.688;2023-09-19T07:34:11;3.63;;;1.65;;
24216;SDS011;12356;49.386;8.688;2023-09-19T07:36:44;5.78;;;1.52;;
24216;SDS011;12356;49.386;8.688;2023-09-19T07:39:14;3.45;;;1.55;;
24216;SDS011;12356;49.386;8.688;2023-09-19T07:41:45;2.65;;;1.40;;
24216;SDS011;12356;49.386;8.688;2023-09-19T07:44:16;4.25;;;1.48;;
24216;SDS011;12356;49.386;8.688;2023-09-19T07:46:47;6.10;;;1.67;;
24216;SDS011;12356;49.386;8.688;2023-09-19T07:49:20;3.35;;;1.50;;
24216;SDS011;12356;49.386;8.688;2023-09-19T07:51:51;2.95;;;1.50;;
24216;SDS011;12356;49.386;8.688;2023-09-19T07:54:24;5.07;;;1.63;;
24216;SDS011;12356;49.386;8.688;2023-09-19T07:56:55;6.57;;;1.40;;
24216;SDS011;12356;49.386;8.688;2023-09-19T07:59:26;3.00;;;1.48;;
24216;SDS011;12356;49.386;8.688;2023-09-19T08:01:56;5.40;;;1.63;;
24216;SDS011;12356;49.386;8.688;2023-09-19T08:04:27;4.93;;;1.30;;
24216;SDS011;12356;49.386;8.688;2023-09-19T08:07:00;3.63;;;1.38;;
24216;SDS011;12356;49.386;8.688;2023-09-19T08:09:33;4.93;;;1.33;;
24216;SDS011;12356;49.386;8.688;2023-09-19T08:12:07;3.67;;;1.27;;
24216;SDS011;12356;49.386;8.688;2023-09-19T08:14:40;4.20;;;1.13;;
24216;SDS011;12356;49.386;8.688;2023-09-19T08:17:13;4.10;;;1.38;;
24216;SDS011;12356;49.386;8.688;2023-09-19T08:19:45;2.85;;;1.42;;
24216;SDS011;12356;49.386;8.688;2023-09-19T08:22:16;3.58;;;1.27;;
24216;SDS011;12356;49.386;8.688;2023-09-19T08:24:47;3.45;;;1.60;;
24216;SDS011;12356;49.386;8.688;2023-09-19T08:27:17;4.72;;;1.30;;
24216;SDS011;12356;49.386;8.688;2023-09-19T08:29:49;8.95;;;1.58;;
24216;SDS011;12356;49.386;8.688;2023-09-19T08:32:21;2.25;;;1.17;;
24216;SDS011;12356;49.386;8.688;2023-09-19T08:34:54;3.88;;;1.40;;
24216;SDS011;12356;49.386;8.688;2023-09-19T08:37:24;5.15;;;1.40;;
24216;SDS011;12356;49.386;8.688;2023-09-19T08:39:55;3.78;;;1.23;;
24216;SDS011;12356;49.386;8.688;2023-09-19T08:42:25;3.55;;;0.98;;
24216;SDS011;12356;49.386;8.688;2023-09-19T08:44:57;5.32;;;1.20;;
24216;SDS011;12356;49.386;8.688;2023-09-19T08:47:34;3.90;;;1.23;;
24216;SDS011;12356;49.386;8.688;2023-09-19T08:50:19;5.45;;;1.48;;
24216;SDS011;12356;49.386;8.688;2023-09-19T08:53:00;2.88;;;1.38;;
24216;SDS011;12356;49.386;8.688;2023-09-19T08:55:36;2.88;;;1.27;;
24216;SDS011;12356;49.386;8.688;2023-09-19T08:58:09;2.55;;;1.05;;
24216;SDS011;12356;49.386;8.688;2023-09-19T09:00:40;6.68;;;1.45;;
24216;SDS011;12356;49.386;8.688;2023-09-19T09:03:13;2.95;;;1.30;;
24216;SDS011;12356;49.386;8.688;2023-09-19T09:05:45;6.90;;;1.27;;
24216;SDS011;12356;49.386;8.688;2023-09-19T09:08:18;2.95;;;1.13;;
24216;SDS011;12356;49.386;8.688;2023-09-19T09:10:50;3.85;;;1.35;;
24216;SDS011;12356;49.386;8.688;2023-09-19T09:13:21;4.82;;;1.20;;
24216;SDS011;12356;49.386;8.688;2023-09-19T09:15:54;7.55;;;1.50;;
24216;SDS011;12356;49.386;8.688;2023-09-19T09:18:25;4.30;;;1.50;;
24216;SDS011;12356;49.386;8.688;2023-09-19T09:20:56;2.20;;;1.17;;
24216;SDS011;12356;49.386;8.688;2023-09-19T09:23:26;5.32;;;1.40;;
24216;SDS011;12356;49.386;8.688;2023-09-19T09:26:01;3.38;;;1.25;;
24216;SDS011;12356;49.386;8.688;2023-09-19T09:28:33;4.20;;;1.30;;
24216;SDS011;12356;49.386;8.688;2023-09-19T09:31:05;2.65;;;1.15;;
24216;SDS011;12356;49.386;8.688;2023-09-19T09:33:39;5.03;;;1.50;;
24216;SDS011;12356;49.386;8.688;2023-09-19T09:36:11;7.60;;;1.35;;
24216;SDS011;12356;49.386;8.688;2023-09-19T09:38:43;4.17;;;1.10;;
24216;SDS011;12356;49.386;8.688;2023-09-19T09:41:18;2.83;;;1.10;;
24216;SDS011;12356;49.386;8.688;2023-09-19T09:43:58;5.38;;;1.40;;
24216;SDS011;12356;49.386;8.688;2023-09-19T09:46:47;2.90;;;1.15;;
24216;SDS011;12356;49.386;8.688;2023-09-19T09:49:25;6.38;;;1.58;;
24216;SDS011;12356;49.386;8.688;2023-09-19T09:52:05;4.75;;;1.52;;
24216;SDS011;12356;49.386;8.688;2023-09-19T09:54:59;2.63;;;1.05;;
24216;SDS011;12356;49.386;8.688;2023-09-19T09:57:35;4.85;;;1.10;;
24216;SDS011;12356;49.386;8.688;2023-09-19T10:00:06;2.42;;;1.10;;
24216;SDS011;12356;49.386;8.688;2023-09-19T10:02:43;3.28;;;1.38;;
24216;SDS011;12356;49.386;8.688;2023-09-19T10:07:50;3.92;;;1.40;;
24216;SDS011;12356;49.386;8.688;2023-09-19T10:10:35;3.75;;;1.25;;
24216;SDS011;12356;49.386;8.688;2023-09-19T10:13:15;3.00;;;1.17;;
24216;SDS011;12356;49.386;8.688;2023-09-19T10:15:51;5.22;;;1.40;;
24216;SDS011;12356;49.386;8.688;2023-09-19T10:18:25;3.10;;;1.20;;
24216;SDS011;12356;49.386;8.688;2023-09-19T10:20:57;5.00;;;1.65;;
24216;SDS011;12356;49.386;8.688;2023-09-19T10:23:29;3.38;;;1.42;;
24216;SDS011;12356;49.386;8.688;2023-09-19T10:26:04;4.25;;;1.35;;
24216;SDS011;12356;49.386;8.688;2023-09-19T10:28:36;3.88;;;1.30;;
24216;SDS011;12356;49.386;8.688;2023-09-19T10:31:08;4.63;;;1.23;;
24216;SDS011;12356;49.386;8.688;2023-09-19T10:33:44;3.28;;;1.30;;
24216;SDS011;12356;49.386;8.688;2023-09-19T10:36:15;2.50;;;1.35;;
24216;SDS011;12356;49.386;8.688;2023-09-19T10:38:49;5.15;;;1.33;;
24216;SDS011;12356;49.386;8.688;2023-09-19T10:41:22;3.08;;;1.23;;
24216;SDS011;12356;49.386;8.688;2023-09-19T10:43:53;5.88;;;1.77;;
24216;SDS011;12356;49.386;8.688;2023-09-19T10:46:24;1.90;;;1.38;;
24216;SDS011;12356;49.386;8.688;2023-09-19T10:48:58;3.72;;;1.20;;
24216;SDS011;12356;49.386;8.688;2023-09-19T10:51:38;3.53;;;1.50;;
24216;SDS011;12356;49.386;8.688;2023-09-19T10:54:11;3.50;;;1.55;;
24216;SDS011;12356;49.386;8.688;2023-09-19T10:56:44;4.70;;;1.50;;
24216;SDS011;12356;49.386;8.688;2023-09-19T10:59:21;4.05;;;1.45;;
24216;SDS011;12356;49.386;8.688;2023-09-19T11:01:55;4.85;;;1.60;;
24216;SDS011;12356;49.386;8.688;2023-09-19T11:09:48;5.40;;;1.42;;
24216;SDS011;12356;49.386;8.688;2023-09-19T11:15:02;3.20;;;1.85;;
24216;SDS011;12356;49.386;8.688;2023-09-19T11:17:38;4.15;;;1.60;;
24216;SDS011;12356;49.386;8.688;2023-09-19T11:28:46;3.50;;;1.10;;
24216;SDS011;12356;49.386;8.688;2023-09-19T11:30:52;3.67;;;1.60;;
24216;SDS011;12356;49.386;8.688;2023-09-19T11:33:30;3.22;;;1.40;;
24216;SDS011;12356;49.386;8.688;2023-09-19T11:36:04;4.15;;;1.52;;
24216;SDS011;12356;49.386;8.688;2023-09-19T11:46:31;2.72;;;1.30;;
24216;SDS011;12356;49.386;8.688;2023-09-19T11:49:05;2.83;;;1.48;;
24216;SDS011;12356;49.386;8.688;2023-09-19T11:51:43;2.80;;;1.52;;
24216;SDS011;12356;49.386;8.688;2023-09-19T11:54:14;3.07;;;1.43;;
24216;SDS011;12356;49.386;8.688;2023-09-19T11:56:52;4.50;;;1.50;;
24216;SDS011;12356;49.386;8.688;2023-09-19T12:02:00;5.50;;;2.05;;
24216;SDS011;12356;49.386;8.688;2023-09-19T12:04:34;3.72;;;1.63;;
24216;SDS011;12356;49.386;8.688;2023-09-19T12:07:08;4.07;;;1.30;;
24216;SDS011;12356;49.386;8.688;2023-09-19T12:09:45;3.72;;;1.40;;
24216;SDS011;12356;49.386;8.688;2023-09-19T12:14:57;3.55;;;1.58;;
24216;SDS011;12356;49.386;8.688;2023-09-19T12:17:37;3.88;;;1.48;;
24216;SDS011;12356;49.386;8.688;2023-09-19T12:20:11;3.83;;;1.48;;
24216;SDS011;12356;49.386;8.688;2023-09-19T12:22:45;2.05;;;1.20;;
24216;SDS011;12356;49.386;8.688;2023-09-19T12:25:16;3.78;;;1.20;;
24216;SDS011;12356;49.386;8.688;2023-09-19T12:27:48;4.85;;;1.38;;
24216;SDS011;12356;49.386;8.688;2023-09-19T12:30:27;4.47;;;1.30;;
24216;SDS011;12356;49.386;8.688;2023-09-19T12:32:58;4.15;;;1.58;;
24216;SDS011;12356;49.386;8.688;2023-09-19T12:35:32;2.72;;;1.17;;
24216;SDS011;12356;49.386;8.688;2023-09-19T12:38:06;4.95;;;1.27;;
24216;SDS011;12356;49.386;8.688;2023-09-19T12:40:38;3.05;;;1.40;;
24216;SDS011;12356;49.386;8.688;2023-09-19T12:43:12;2.28;;;1.17;;
24216;SDS011;12356;49.386;8.688;2023-09-19T12:45:45;7.70;;;1.60;;
24216;SDS011;12356;49.386;8.688;2023-09-19T12:51:05;2.40;;;1.20;;
24216;SDS011;12356;49.386;8.688;2023-09-19T12:53:38;2.33;;;1.27;;
24216;SDS011;12356;49.386;8.688;2023-09-19T12:56:13;4.93;;;1.50;;
24216;SDS011;12356;49.386;8.688;2023-09-19T13:01:20;5.25;;;1.73;;
24216;SDS011;12356;49.386;8.688;2023-09-19T13:06:49;3.45;;;1.50;;
24216;SDS011;12356;49.386;8.688;2023-09-19T13:09:22;1.90;;;1.40;;
24216;SDS011;12356;49.386;8.688;2023-09-19T13:12:01;3.22;;;1.20;;
24216;SDS011;12356;49.386;8.688;2023-09-19T13:14:32;3.13;;;1.20;;
24216;SDS011;12356;49.386;8.688;2023-09-19T13:17:10;2.35;;;1.20;;
24216;SDS011;12356;49.386;8.688;2023-09-19T13:19:47;4.10;;;1.20;;
24216;SDS011;12356;49.386;8.688;2023-09-19T13:25:10;4.75;;;1.30;;
24216;SDS011;12356;49.386;8.688;2023-09-19T13:27:48;3.40;;;1.52;;
24216;SDS011;12356;49.386;8.688;2023-09-19T13:30:25;2.88;;;1.30;;
24216;SDS011;12356;49.386;8.688;2023-09-19T13:33:06;8.25;;;1.35;;
24216;SDS011;12356;49.386;8.688;2023-09-19T13:35:41;4.57;;;1.23;;
24216;SDS011;12356;49.386;8.688;2023-09-19T13:38:11;2.42;;;1.20;;
24216;SDS011;12356;49.386;8.688;2023-09-19T13:40:42;3.28;;;1.60;;
24216;SDS011;12356;49.386;8.688;2023-09-19T13:43:13;3.65;;;1.40;;
24216;SDS011;12356;49.386;8.688;2023-09-19T13:45:43;3.53;;;1.02;;
24216;SDS011;12356;49.386;8.688;2023-09-19T13:48:14;3.70;;;1.40;;
24216;SDS011;12356;49.386;8.688;2023-09-19T13:50:44;4.25;;;1.38;;
24216;SDS011;12356;49.386;8.688;2023-09-19T13:53:15;2.95;;;1.10;;
24216;SDS011;12356;49.386;8.688;2023-09-19T13:55:46;3.35;;;1.35;;
24216;SDS011;12356;49.386;8.688;2023-09-19T13:58:18;1.45;;;1.10;;
24216;SDS011;12356;49.386;8.688;2023-09-19T14:00:49;2.90;;;1.27;;
24216;SDS011;12356;49.386;8.688;2023-09-19T14:03:20;2.23;;;1.10;;
24216;SDS011;12356;49.386;8.688;2023-09-19T14:05:51;2.95;;;1.17;;
24216;SDS011;12356;49.386;8.688;2023-09-19T14:08:22;2.55;;;1.00;;
24216;SDS011;12356;49.386;8.688;2023-09-19T14:10:53;6.65;;;3.03;;
24216;SDS011;12356;49.386;8.688;2023-09-19T14:13:24;3.33;;;1.20;;
24216;SDS011;12356;49.386;8.688;2023-09-19T14:15:55;3.33;;;1.15;;
24216;SDS011;12356;49.386;8.688;2023-09-19T14:18:26;3.05;;;1.10;;
24216;SDS011;12356;49.386;8.688;2023-09-19T14:20:56;2.25;;;1.10;;
24216;SDS011;12356;49.386;8.688;2023-09-19T14:23:27;2.88;;;1.00;;
24216;SDS011;12356;49.386;8.688;2023-09-19T14:26:00;2.92;;;1.15;;
24216;SDS011;12356;49.386;8.688;2023-09-19T14:28:31;3.05;;;1.25;;
24216;SDS011;12356;49.386;8.688;2023-09-19T14:31:04;2.28;;;1.10;;
24216;SDS011;12356;49.386;8.688;2023-09-19T14:33:37;4.60;;;1.27;;
24216;SDS011;12356;49.386;8.688;2023-09-19T14:36:08;1.90;;;1.13;;
24216;SDS011;12356;49.386;8.688;2023-09-19T14:41:11;2.80;;;1.42;;
24216;SDS011;12356;49.386;8.688;2023-09-19T14:43:42;2.42;;;1.20;;
24216;SDS011;12356;49.386;8.688;2023-09-19T14:46:13;4.20;;;1.38;;
24216;SDS011;12356;49.386;8.688;2023-09-19T14:48:44;3.80;;;1.27;;
24216;SDS011;12356;49.386;8.688;2023-09-19T14:51:18;3.28;;;1.10;;
24216;SDS011;12356;49.386;8.688;2023-09-19T14:53:49;3.17;;;1.15;;
24216;SDS011;12356;49.386;8.688;2023-09-19T14:56:19;2.28;;;1.13;;
24216;SDS011;12356;49.386;8.688;2023-09-19T14:58:50;5.43;;;1.15;;
24216;SDS011;12356;49.386;8.688;2023-09-19T15:01:21;4.90;;;1.55;;
24216;SDS011;12356;49.386;8.688;2023-09-19T15:03:52;3.20;;;1.10;;
24216;SDS011;12356;49.386;8.688;2023-09-19T15:06:24;1.95;;;1.27;;
24216;SDS011;12356;49.386;8.688;2023-09-19T15:08:56;7.25;;;1.48;;
24216;SDS011;12356;49.386;8.688;2023-09-19T15:11:27;2.13;;;1.23;;
24216;SDS011;12356;49.386;8.688;2023-09-19T15:13:58;2.45;;;1.45;;
24216;SDS011;12356;49.386;8.688;2023-09-19T15:16:29;2.17;;;1.10;;
24216;SDS011;12356;49.386;8.688;2023-09-19T15:19:00;2.30;;;1.20;;
24216;SDS011;12356;49.386;8.688;2023-09-19T15:21:30;2.28;;;1.50;;
24216;SDS011;12356;49.386;8.688;2023-09-19T15:24:01;4.50;;;1.20;;
24216;SDS011;12356;49.386;8.688;2023-09-19T15:26:32;2.83;;;1.27;;
24216;SDS011;12356;49.386;8.688;2023-09-19T15:29:03;2.90;;;1.40;;
24216;SDS011;12356;49.386;8.688;2023-09-19T15:31:35;2.72;;;1.30;;
24216;SDS011;12356;49.386;8.688;2023-09-19T15:34:09;3.38;;;1.42;;
24216;SDS011;12356;49.386;8.688;2023-09-19T15:36:40;3.42;;;1.40;;
24216;SDS011;12356;49.386;8.688;2023-09-19T15:39:12;2.38;;;1.30;;
24216;SDS011;12356;49.386;8.688;2023-09-19T15:41:45;2.92;;;1.40;;
24216;SDS011;12356;49.386;8.688;2023-09-19T15:44:19;1.60;;;1.20;;
24216;SDS011;12356;49.386;8.688;2023-09-19T15:46:49;2.80;;;0.93;;
24216;SDS011;12356;49.386;8.688;2023-09-19T15:49:20;2.33;;;1.13;;
24216;SDS011;12356;49.386;8.688;2023-09-19T15:51:51;1.92;;;1.30;;
24216;SDS011;12356;49.386;8.688;2023-09-19T15:54:21;1.20;;;0.85;;
24216;SDS011;12356;49.386;8.688;2023-09-19T15:56:55;4.93;;;1.23;;
24216;SDS011;12356;49.386;8.688;2023-09-19T15:59:25;2.30;;;1.10;;
24216;SDS011;12356;49.386;8.688;2023-09-19T16:01:56;3.25;;;1.23;;
24216;SDS011;12356;49.386;8.688;2023-09-19T16:04:27;2.78;;;1.10;;
24216;SDS011;12356;49.386;8.688;2023-09-19T16:06:58;3.17;;;1.10;;
24216;SDS011;12356;49.386;8.688;2023-09-19T16:09:29;4.57;;;1.10;;
24216;SDS011;12356;49.386;8.688;2023-09-19T16:11:59;2.35;;;1.20;;
24216;SDS011;12356;49.386;8.688;2023-09-19T16:14:30;2.20;;;1.05;;
24216;SDS011;12356;49.386;8.688;2023-09-19T16:17:00;2.10;;;1.08;;
24216;SDS011;12356;49.386;8.688;2023-09-19T16:19:32;3.25;;;1.30;;
24216;SDS011;12356;49.386;8.688;2023-09-19T16:22:03;1.73;;;1.00;;
24216;SDS011;12356;49.386;8.688;2023-09-19T16:24:34;2.38;;;1.13;;